Airfield :
LOGIN :

Register | Disclaimer

   EN    FR    IT 

 










Legend :    VFR   Marginal VFR   IFR   Intensive IFR   Very Intensive IFR
Visi :
Ceiling :
>= 8 km
>= 3000ft
5 to 8 km
1000 to 3000 ft
1500m to 5 km
500 to 1000 ft
800 to 1500m
200 to 500 ft
< 800m
< 200 ft
Symbols :   Thunderstorms  Fog  Heavy snow  Heavy precipitations  Wind > 20 kt
SIGMETs :     Misc.  Thunderstorms  Icing  Turbulence  Mountain Waves  Volcanic Ashes







- Airport Elevation : 84 ft
- Download approach charts


LFBC - Cazaux

CURRENT METAR :
  • 261900Z AUTO 29007KT 250V320 9999 FEW016 BKN025 OVC032 15/12 Q1020

EXPIRED METARs :
  • 261830Z AUTO 27007KT 250V310 9999 BKN018 BKN024 OVC031 16/12 Q1020
  • 261800Z AUTO 27007KT 230V310 9999 BKN019 BKN026 16/12 Q1020
  • 261730Z AUTO 29008KT 250V330 9999 BKN021 17/12 Q1020
  • 261700Z AUTO 28009KT 9999 BKN023 BKN047 18/12 Q1020
  • 261630Z AUTO 27008KT 240V310 9999 BKN020 BKN025 OVC048 18/12 Q1020

TAF TAF LFBC
Valid from the 26 at 09:00 until the 27 at 09:00 UTC


260800Z 2609/2709 29008KT 9999 SCT015 BKN030
BECMG 2621/2623 BKN010
TEMPO 2623/2709 3000 RADZ BKN005 BKN008
No reported NOTAMs for that airfield.



MET'MAP, your aeronautical weather chart ! - Copyright ORBIFLY December 2007 - Disclaimer

ORBIFLY MET'MAP TEAM :

Programming & Development : Alexandra Zaïnal
Concept & Development : Baudouin d'Aumeries
Co-Development & Prog : Marc-Olivier Méhu
Technical & hardware support : Manuel Goepfert

Contact : metmap@orbifly.com




SOURCES & CREDITS :

   NOAA